createdAt,value
2023-03-05T00:01:33.594Z,8.50
2023-03-05T00:04:03.196Z,4.30
2023-03-05T00:06:32.057Z,5.97
2023-03-05T00:08:59.321Z,6.53
2023-03-05T00:11:30.393Z,6.43
2023-03-05T00:14:00.010Z,5.90
2023-03-05T00:16:28.816Z,4.80
2023-03-05T00:18:58.836Z,4.53
2023-03-05T00:21:36.457Z,4.30
2023-03-05T00:24:07.831Z,4.77
2023-03-05T00:26:38.973Z,3.80
2023-03-05T00:29:09.039Z,3.50
2023-03-05T00:31:37.966Z,5.80
2023-03-05T00:34:11.515Z,7.33
2023-03-05T00:36:44.898Z,4.47
2023-03-05T00:39:13.030Z,8.20
2023-03-05T00:41:40.794Z,6.37
2023-03-05T00:44:07.851Z,6.37
2023-03-05T00:46:34.991Z,6.00
2023-03-05T00:49:02.371Z,5.97
2023-03-05T00:51:29.697Z,5.50
2023-03-05T00:53:56.682Z,4.63
2023-03-05T00:56:23.744Z,5.80
2023-03-05T00:58:50.708Z,7.23
2023-03-05T01:01:17.718Z,4.60
2023-03-05T01:03:44.714Z,3.90
2023-03-05T01:06:16.381Z,7.60
2023-03-05T01:08:44.934Z,5.00
2023-03-05T01:11:12.704Z,7.80
2023-03-05T01:13:39.743Z,6.40
2023-03-05T01:16:07.388Z,5.80
2023-03-05T01:18:34.733Z,8.07
2023-03-05T01:21:01.844Z,6.57
2023-03-05T01:23:28.824Z,6.70
2023-03-05T01:26:00.411Z,6.97
2023-03-05T01:28:28.568Z,5.73
2023-03-05T01:30:55.538Z,5.97
2023-03-05T01:33:22.967Z,6.33
2023-03-05T01:35:50.506Z,7.10
2023-03-05T01:38:18.492Z,6.43
2023-03-05T01:40:45.613Z,6.57
2023-03-05T01:43:12.562Z,9.17
2023-03-05T01:46:19.074Z,6.17
2023-03-05T01:48:54.346Z,6.53
2023-03-05T01:51:29.465Z,5.70
2023-03-05T01:54:00.776Z,8.50
2023-03-05T01:56:29.488Z,4.50
2023-03-05T01:59:04.247Z,5.87
2023-03-05T02:01:37.493Z,6.00
2023-03-05T02:04:06.930Z,10.20
2023-03-05T02:06:35.795Z,5.57
2023-03-05T02:09:03.101Z,6.47
2023-03-05T02:11:30.663Z,5.87
2023-03-05T02:13:58.891Z,3.83
2023-03-05T02:16:26.054Z,4.73
2023-03-05T02:18:53.184Z,2.07
2023-03-05T02:21:42.528Z,5.10
2023-03-05T02:24:31.807Z,7.10
2023-03-05T02:27:00.490Z,4.10
2023-03-05T02:29:30.772Z,5.67
2023-03-05T02:31:57.973Z,5.17
2023-03-05T02:34:25.046Z,8.77
2023-03-05T02:36:52.625Z,3.90
2023-03-05T02:39:19.983Z,8.90
2023-03-05T02:41:47.323Z,8.63
2023-03-05T02:44:14.390Z,5.10
2023-03-05T02:46:44.318Z,4.23
2023-03-05T02:49:11.393Z,4.27
2023-03-05T02:51:38.565Z,6.53
2023-03-05T02:54:07.793Z,5.37
2023-03-05T02:56:35.442Z,5.30
2023-03-05T02:59:02.561Z,5.10
2023-03-05T03:01:32.127Z,4.77
2023-03-05T03:03:59.327Z,2.50
2023-03-05T03:06:26.320Z,7.23
2023-03-05T03:08:53.516Z,5.40
2023-03-05T03:11:21.590Z,5.30
2023-03-05T03:13:48.664Z,6.63
2023-03-05T03:16:16.514Z,5.07
2023-03-05T03:18:44.401Z,4.03
2023-03-05T03:21:20.387Z,4.00
2023-03-05T03:23:47.553Z,4.10
2023-03-05T03:26:14.581Z,7.33
2023-03-05T03:28:42.750Z,4.43
2023-03-05T03:31:09.738Z,5.63
2023-03-05T03:33:36.838Z,4.17
2023-03-05T03:36:05.678Z,6.50
2023-03-05T03:38:33.033Z,7.47
2023-03-05T03:40:59.956Z,5.00
2023-03-05T03:43:26.960Z,3.73
2023-03-05T03:45:54.030Z,6.00
2023-03-05T03:48:21.040Z,4.77
2023-03-05T03:50:48.059Z,6.17
2023-03-05T03:53:16.180Z,5.17
2023-03-05T03:55:46.544Z,6.30
2023-03-05T03:58:14.041Z,4.97
2023-03-05T04:00:42.059Z,5.57
2023-03-05T04:03:09.518Z,5.37
2023-03-05T04:05:36.494Z,6.83
2023-03-05T04:08:03.756Z,8.20
2023-03-05T04:10:30.805Z,6.93
2023-03-05T04:12:57.806Z,5.53
2023-03-05T04:15:25.406Z,4.80
2023-03-05T04:17:52.562Z,4.77
2023-03-05T04:20:19.632Z,9.80
2023-03-05T04:22:46.740Z,6.97
2023-03-05T04:25:13.690Z,10.63
2023-03-05T04:27:40.762Z,8.70
2023-03-05T04:30:14.719Z,6.83
2023-03-05T04:32:42.190Z,6.33
2023-03-05T04:35:10.076Z,5.53
2023-03-05T04:37:37.152Z,6.20
2023-03-05T04:40:05.215Z,8.00
2023-03-05T04:42:33.324Z,5.60
2023-03-05T04:45:00.512Z,6.67
2023-03-05T04:47:27.680Z,7.90
2023-03-05T04:49:54.776Z,7.00
2023-03-05T04:52:22.798Z,7.27
2023-03-05T04:54:49.871Z,8.37
2023-03-05T04:57:17.434Z,7.20
2023-03-05T04:59:44.534Z,11.07
2023-03-05T05:02:12.245Z,5.87
2023-03-05T05:04:40.423Z,7.00
2023-03-05T05:07:09.622Z,7.07
2023-03-05T05:09:38.113Z,8.00
2023-03-05T05:12:05.594Z,7.00
2023-03-05T05:14:34.843Z,7.53
2023-03-05T05:17:05.182Z,10.27
2023-03-05T05:19:35.943Z,6.33
2023-03-05T05:22:03.088Z,10.97
2023-03-05T05:24:30.599Z,6.67
2023-03-05T05:26:57.710Z,7.03
2023-03-05T05:29:24.634Z,8.50
2023-03-05T05:31:53.235Z,6.33
2023-03-05T05:34:20.234Z,6.80
2023-03-05T05:36:47.381Z,7.50
2023-03-05T05:39:14.813Z,10.80
2023-03-05T05:41:41.837Z,6.07
2023-03-05T05:44:08.833Z,7.00
2023-03-05T05:46:35.942Z,8.17
2023-03-05T05:49:03.083Z,6.33
2023-03-05T05:51:30.277Z,5.30
2023-03-05T05:53:57.392Z,8.97
2023-03-05T05:56:24.631Z,6.40
2023-03-05T05:58:51.991Z,8.93
2023-03-05T06:01:28.424Z,7.37
2023-03-05T06:03:56.938Z,6.43
2023-03-05T06:06:26.339Z,5.77
2023-03-05T06:08:54.609Z,6.53
2023-03-05T06:11:22.304Z,10.13
2023-03-05T06:13:50.035Z,6.13
2023-03-05T06:16:23.225Z,6.90
2023-03-05T06:18:52.725Z,4.97
2023-03-05T06:21:22.467Z,6.00
2023-03-05T06:23:50.611Z,6.90
2023-03-05T06:26:22.114Z,7.37
2023-03-05T06:28:49.482Z,7.33
2023-03-05T06:31:26.094Z,7.77
2023-03-05T06:33:56.819Z,8.40
2023-03-05T06:36:25.734Z,5.97
2023-03-05T06:38:53.978Z,4.97
2023-03-05T06:41:28.455Z,7.20
2023-03-05T06:43:56.600Z,10.67
2023-03-05T06:46:27.251Z,6.20
2023-03-05T06:48:57.608Z,4.60
2023-03-05T06:51:35.517Z,5.87
2023-03-05T06:54:12.369Z,6.37
2023-03-05T06:56:43.816Z,4.17
2023-03-05T06:59:14.411Z,7.27
2023-03-05T07:01:42.061Z,5.87
2023-03-05T07:04:09.715Z,3.87
2023-03-05T07:06:39.109Z,5.23
2023-03-05T07:09:10.914Z,6.23
2023-03-05T07:11:37.904Z,5.73
2023-03-05T07:14:04.930Z,3.30
2023-03-05T07:16:34.930Z,4.00
2023-03-05T07:19:05.622Z,5.80
2023-03-05T07:21:36.981Z,3.70
2023-03-05T07:24:08.497Z,4.57
2023-03-05T07:26:35.506Z,4.43
2023-03-05T07:29:02.984Z,2.77
2023-03-05T07:31:32.151Z,4.17
2023-03-05T07:34:02.330Z,4.17
2023-03-05T07:36:31.855Z,4.30
2023-03-05T07:38:59.322Z,3.53
2023-03-05T07:41:26.580Z,3.20
2023-03-05T07:43:54.965Z,5.47
2023-03-05T07:46:27.202Z,5.33
2023-03-05T07:48:57.271Z,5.50
2023-03-05T07:51:26.830Z,3.60
2023-03-05T07:53:57.665Z,7.13
2023-03-05T07:56:35.265Z,3.73
2023-03-05T07:59:11.286Z,5.30
2023-03-05T08:01:38.850Z,3.60
2023-03-05T08:04:10.907Z,4.57
2023-03-05T08:06:42.147Z,5.80
2023-03-05T08:09:10.027Z,2.50
2023-03-05T08:11:39.707Z,3.37
2023-03-05T08:14:06.926Z,2.60
2023-03-05T08:16:34.713Z,3.17
2023-03-05T08:19:02.127Z,3.13
2023-03-05T08:21:36.354Z,3.33
2023-03-05T08:24:08.064Z,3.40
2023-03-05T08:26:41.176Z,4.67
2023-03-05T08:29:10.996Z,2.50
2023-03-05T08:31:39.276Z,3.17
2023-03-05T08:34:07.648Z,2.43
2023-03-05T08:36:36.430Z,3.13
2023-03-05T08:39:04.253Z,2.20
2023-03-05T08:41:33.059Z,2.50
2023-03-05T08:44:01.360Z,4.03
2023-03-05T08:46:31.755Z,3.03
2023-03-05T08:48:58.991Z,1.93
2023-03-05T08:51:27.159Z,3.60
2023-03-05T08:53:59.441Z,2.93
2023-03-05T08:56:28.532Z,3.00
2023-03-05T08:58:55.814Z,3.03
2023-03-05T09:01:24.170Z,2.20
2023-03-05T09:03:51.275Z,2.77
2023-03-05T09:06:19.826Z,3.10
2023-03-05T09:08:46.802Z,3.63
2023-03-05T09:11:15.574Z,2.43
2023-03-05T09:13:43.859Z,2.50
2023-03-05T09:16:17.928Z,3.70
2023-03-05T09:18:49.538Z,1.37
2023-03-05T09:21:18.418Z,2.47
2023-03-05T09:23:47.480Z,2.30
2023-03-05T09:26:21.414Z,3.33
2023-03-05T09:28:48.661Z,2.53
2023-03-05T09:31:16.746Z,4.27
2023-03-05T09:33:45.512Z,2.00
2023-03-05T09:36:26.454Z,4.00
2023-03-05T09:38:54.129Z,3.90
2023-03-05T09:42:10.145Z,2.10
2023-03-05T09:45:22.960Z,3.67
2023-03-05T09:48:06.730Z,2.63
2023-03-05T09:50:43.559Z,4.70
2023-03-05T09:53:35.101Z,3.63
2023-03-05T09:56:13.186Z,3.07
2023-03-05T09:58:48.429Z,3.87
2023-03-05T10:01:32.121Z,3.40
2023-03-05T10:04:06.601Z,3.37
2023-03-05T10:06:52.721Z,2.43
2023-03-05T10:09:43.576Z,3.53
2023-03-05T10:12:28.043Z,3.83
2023-03-05T10:14:56.003Z,3.63
2023-03-05T10:17:50.998Z,2.27
2023-03-05T10:20:25.630Z,3.97
2023-03-05T10:23:15.331Z,3.00
2023-03-05T10:26:08.503Z,3.70
2023-03-05T10:29:20.353Z,2.57
2023-03-05T10:32:13.634Z,3.37
2023-03-05T10:35:03.771Z,1.57
2023-03-05T10:37:52.448Z,1.87
2023-03-05T10:40:52.261Z,2.00
2023-03-05T10:43:48.425Z,3.13
2023-03-05T10:46:20.420Z,1.97
2023-03-05T10:48:55.926Z,2.73
2023-03-05T10:51:39.460Z,3.10
2023-03-05T10:54:28.948Z,4.13
2023-03-05T10:57:18.645Z,2.40
2023-03-05T11:00:01.160Z,2.07
2023-03-05T11:02:28.324Z,2.73
2023-03-05T11:04:56.921Z,2.27
2023-03-05T11:07:26.810Z,1.37
2023-03-05T11:10:21.533Z,1.90
2023-03-05T11:12:50.078Z,1.27
2023-03-05T11:15:17.052Z,1.10
2023-03-05T11:18:17.905Z,1.20
2023-03-05T11:20:45.210Z,1.30
2023-03-05T11:23:23.953Z,1.80
2023-03-05T11:25:57.296Z,1.13
2023-03-05T11:28:41.395Z,2.93
2023-03-05T11:31:17.913Z,1.60
2023-03-05T11:33:59.636Z,1.67
2023-03-05T11:36:42.033Z,2.03
2023-03-05T11:39:18.091Z,1.70
2023-03-05T11:41:51.431Z,1.93
2023-03-05T11:44:51.685Z,2.10
2023-03-05T11:47:26.840Z,2.17
2023-03-05T11:50:24.457Z,1.10
2023-03-05T11:53:02.291Z,2.70
2023-03-05T11:55:42.255Z,1.00
2023-03-05T11:58:34.680Z,3.63
2023-03-05T12:01:03.752Z,0.80
2023-03-05T12:03:38.506Z,1.00
2023-03-05T12:06:39.831Z,1.57
2023-03-05T12:09:14.057Z,2.87
2023-03-05T12:11:42.246Z,0.97
2023-03-05T12:14:31.299Z,1.53
2023-03-05T12:17:21.387Z,3.13
2023-03-05T12:20:18.766Z,1.10
2023-03-05T12:22:46.157Z,1.60
2023-03-05T12:25:47.000Z,3.10
2023-03-05T12:28:39.335Z,2.17
2023-03-05T12:31:37.903Z,1.87
2023-03-05T12:34:40.386Z,1.17
2023-03-05T12:37:21.377Z,1.10
2023-03-05T12:39:57.959Z,1.67
2023-03-05T12:42:34.123Z,2.77
2023-03-05T12:45:11.748Z,1.27
2023-03-05T12:47:43.245Z,2.03
2023-03-05T12:50:29.830Z,1.97
2023-03-05T12:53:16.251Z,1.70
2023-03-05T12:56:17.316Z,1.10
2023-03-05T12:58:59.430Z,1.57
2023-03-05T13:01:39.929Z,2.40
2023-03-05T13:04:17.525Z,1.83
2023-03-05T13:06:44.753Z,1.73
2023-03-05T13:09:28.434Z,1.37
2023-03-05T13:11:56.444Z,1.53
2023-03-05T13:14:46.548Z,2.90
2023-03-05T13:17:57.875Z,2.13
2023-03-05T13:20:27.187Z,1.93
2023-03-05T13:23:27.199Z,1.83
2023-03-05T13:26:20.816Z,1.93
2023-03-05T13:29:16.014Z,2.97
2023-03-05T13:31:55.863Z,2.03
2023-03-05T13:34:46.589Z,1.30
2023-03-05T13:37:21.851Z,1.30
2023-03-05T13:40:20.833Z,0.80
2023-03-05T13:42:49.356Z,1.50
2023-03-05T13:45:35.186Z,1.20
2023-03-05T13:48:07.821Z,1.43
2023-03-05T13:50:40.730Z,1.70
2023-03-05T13:53:33.988Z,1.27
2023-03-05T13:56:09.754Z,1.27
2023-03-05T13:58:57.683Z,2.03
2023-03-05T14:01:36.879Z,2.27
2023-03-05T14:04:19.221Z,2.27
2023-03-05T14:06:56.377Z,1.10
2023-03-05T14:09:26.283Z,2.37
2023-03-05T14:12:10.463Z,3.97
2023-03-05T14:14:38.874Z,2.00
2023-03-05T14:17:30.928Z,1.20
2023-03-05T14:20:27.641Z,3.07
2023-03-05T14:23:01.965Z,1.17
2023-03-05T14:25:34.246Z,2.83
2023-03-05T14:28:21.024Z,1.83
2023-03-05T14:30:55.282Z,2.03
2023-03-05T14:33:27.115Z,1.37
2023-03-05T14:35:55.861Z,2.63
2023-03-05T14:38:28.856Z,1.00
2023-03-05T14:40:58.972Z,2.10
2023-03-05T14:43:26.062Z,2.20
2023-03-05T14:45:53.260Z,6.80
2023-03-05T14:48:23.299Z,1.07
2023-03-05T14:50:56.836Z,1.50
2023-03-05T14:53:34.532Z,1.57
2023-03-05T14:56:02.568Z,2.63
2023-03-05T14:58:35.536Z,2.63
2023-03-05T15:01:03.059Z,2.43
2023-03-05T15:03:31.009Z,3.37
2023-03-05T15:05:59.689Z,1.30
2023-03-05T15:08:32.071Z,2.73
2023-03-05T15:11:00.395Z,1.57
2023-03-05T15:13:27.978Z,1.80
2023-03-05T15:15:59.109Z,1.50
2023-03-05T15:18:26.189Z,2.10
2023-03-05T15:20:53.274Z,2.13
2023-03-05T15:23:20.648Z,1.50
2023-03-05T15:25:48.110Z,1.63
2023-03-05T15:28:17.133Z,3.13
2023-03-05T15:30:47.487Z,1.97
2023-03-05T15:33:17.832Z,1.60
2023-03-05T15:35:45.380Z,1.60
2023-03-05T15:38:12.680Z,4.50
2023-03-05T15:40:39.887Z,1.63
2023-03-05T15:43:06.944Z,2.07
2023-03-05T15:45:34.077Z,2.50
2023-03-05T15:48:01.531Z,2.20
2023-03-05T15:50:29.336Z,3.40
2023-03-05T15:52:57.784Z,2.27
2023-03-05T15:55:24.807Z,2.20
2023-03-05T15:57:54.734Z,3.83
2023-03-05T16:00:29.870Z,3.60
2023-03-05T16:02:57.366Z,2.10
2023-03-05T16:05:24.732Z,2.30
2023-03-05T16:07:53.993Z,2.40
2023-03-05T16:10:25.459Z,2.40
2023-03-05T16:13:11.692Z,3.23
2023-03-05T16:15:41.920Z,2.97
2023-03-05T16:18:16.241Z,2.40
2023-03-05T16:20:43.525Z,3.63
2023-03-05T16:23:10.713Z,2.37
2023-03-05T16:25:38.079Z,4.37
2023-03-05T16:28:05.302Z,3.13
2023-03-05T16:30:34.304Z,3.17
2023-03-05T16:33:01.401Z,2.40
2023-03-05T16:35:29.033Z,2.40
2023-03-05T16:37:57.069Z,2.10
2023-03-05T16:40:27.028Z,2.27
2023-03-05T16:42:58.150Z,3.50
2023-03-05T16:45:25.185Z,1.63
2023-03-05T16:47:53.027Z,2.10
2023-03-05T16:50:20.268Z,2.50
2023-03-05T16:52:47.505Z,2.37
2023-03-05T16:55:14.490Z,2.30
2023-03-05T16:57:41.928Z,2.07
2023-03-05T17:00:11.810Z,2.30
2023-03-05T17:02:40.151Z,2.50
2023-03-05T17:05:08.587Z,2.57
2023-03-05T17:07:36.061Z,1.40
2023-03-05T17:10:03.596Z,2.00
2023-03-05T17:12:33.766Z,2.23
2023-03-05T17:15:01.910Z,1.50
2023-03-05T17:17:28.944Z,2.70
2023-03-05T17:20:02.124Z,2.17
2023-03-05T17:22:31.124Z,2.07
2023-03-05T17:24:58.454Z,1.73
2023-03-05T17:27:25.735Z,1.47
2023-03-05T17:29:53.315Z,2.27
2023-03-05T17:32:20.825Z,1.70
2023-03-05T17:34:48.126Z,2.03
2023-03-05T17:37:17.088Z,2.67
2023-03-05T17:39:44.177Z,2.53
2023-03-05T17:42:12.066Z,3.63
2023-03-05T17:44:39.807Z,2.70
2023-03-05T17:47:07.875Z,1.47
2023-03-05T17:49:35.141Z,2.30
2023-03-05T17:52:02.346Z,1.53
2023-03-05T17:54:33.680Z,1.40
2023-03-05T17:57:01.038Z,1.40
2023-03-05T17:59:28.667Z,1.20
2023-03-05T18:01:56.207Z,1.23
2023-03-05T18:04:24.312Z,2.00
2023-03-05T18:06:51.561Z,1.57
2023-03-05T18:09:18.629Z,2.70
2023-03-05T18:11:45.703Z,2.10
2023-03-05T18:14:12.937Z,1.40
2023-03-05T18:16:42.326Z,2.57
2023-03-05T18:19:11.007Z,1.57
2023-03-05T18:21:41.436Z,1.20
2023-03-05T18:24:10.609Z,1.53
2023-03-05T18:26:37.798Z,1.90
2023-03-05T18:29:06.596Z,2.20
2023-03-05T18:31:34.498Z,2.80
2023-03-05T18:34:01.458Z,3.10
2023-03-05T18:36:28.604Z,1.87
2023-03-05T18:38:55.905Z,2.37
2023-03-05T18:41:28.007Z,1.93
2023-03-05T18:43:56.364Z,2.00
2023-03-05T18:46:23.965Z,2.60
2023-03-05T18:48:51.814Z,3.27
2023-03-05T18:51:21.861Z,1.90
2023-03-05T18:53:50.274Z,1.67
2023-03-05T18:56:17.314Z,1.50
2023-03-05T18:58:44.963Z,2.43
2023-03-05T19:01:12.072Z,2.33
2023-03-05T19:03:39.362Z,2.20
2023-03-05T19:06:09.753Z,3.33
2023-03-05T19:08:41.088Z,3.43
2023-03-05T19:11:23.490Z,1.67
2023-03-05T19:13:52.189Z,2.37
2023-03-05T19:16:32.232Z,2.20
2023-03-05T19:19:16.828Z,2.03
2023-03-05T19:21:53.627Z,1.57
2023-03-05T19:24:23.405Z,2.20
2023-03-05T19:26:55.267Z,2.33
2023-03-05T19:29:23.946Z,2.50
2023-03-05T19:31:53.522Z,1.90
2023-03-05T19:34:21.336Z,2.53
2023-03-05T19:36:48.914Z,2.23
2023-03-05T19:39:16.226Z,1.87
2023-03-05T19:41:43.292Z,3.30
2023-03-05T19:44:13.689Z,1.93
2023-03-05T19:46:41.849Z,2.70
2023-03-05T19:49:10.088Z,2.50
2023-03-05T19:51:37.259Z,2.17
2023-03-05T19:54:05.704Z,2.50
2023-03-05T19:56:36.708Z,3.03
2023-03-05T19:59:04.125Z,2.23
2023-03-05T20:01:31.766Z,2.50
2023-03-05T20:04:05.274Z,1.60
2023-03-05T20:06:34.848Z,2.50
2023-03-05T20:09:02.013Z,2.50
2023-03-05T20:11:33.199Z,2.20
2023-03-05T20:14:01.695Z,1.73
2023-03-05T20:16:33.052Z,2.23
2023-03-05T20:19:00.537Z,1.53
2023-03-05T20:21:32.381Z,2.30
2023-03-05T20:24:05.417Z,2.47
2023-03-05T20:26:36.708Z,2.13
2023-03-05T20:29:05.143Z,3.20
2023-03-05T20:31:36.923Z,1.73
2023-03-05T20:34:12.282Z,3.07
2023-03-05T20:36:40.430Z,1.73
2023-03-05T20:39:08.191Z,2.77
2023-03-05T20:41:39.341Z,2.40
2023-03-05T20:44:11.480Z,1.60
2023-03-05T20:46:49.787Z,2.30
2023-03-05T20:50:58.060Z,1.93
2023-03-05T20:54:04.103Z,2.50
2023-03-05T20:56:35.160Z,4.13
2023-03-05T20:59:06.325Z,3.17
2023-03-05T21:01:40.180Z,2.13
2023-03-05T21:04:07.850Z,2.77
2023-03-05T21:06:35.961Z,1.60
2023-03-05T21:09:03.968Z,3.77
2023-03-05T21:11:32.046Z,2.10
2023-03-05T21:13:59.351Z,4.80
2023-03-05T21:16:27.944Z,2.30
2023-03-05T21:18:57.409Z,2.73
2023-03-05T21:21:25.246Z,2.57
2023-03-05T21:23:55.568Z,2.37
2023-03-05T21:26:22.535Z,2.17
2023-03-05T21:28:49.507Z,2.27
2023-03-05T21:31:22.282Z,3.63
2023-03-05T21:33:50.992Z,4.00
2023-03-05T21:36:20.045Z,2.07
2023-03-05T21:38:50.045Z,2.37
2023-03-05T21:41:18.383Z,2.17
2023-03-05T21:43:45.586Z,3.23
2023-03-05T21:46:12.808Z,3.23
2023-03-05T21:48:40.055Z,3.00
2023-03-05T21:51:09.105Z,3.07
2023-03-05T21:53:36.242Z,3.00
2023-03-05T21:56:19.319Z,3.33
2023-03-05T21:58:47.093Z,4.20
2023-03-05T22:01:16.346Z,3.90
2023-03-05T22:03:43.479Z,4.43
2023-03-05T22:06:18.024Z,3.43
2023-03-05T22:08:53.890Z,4.33
2023-03-05T22:11:22.403Z,3.47
2023-03-05T22:13:49.708Z,4.70
2023-03-05T22:16:25.916Z,5.13
2023-03-05T22:18:54.117Z,4.77
2023-03-05T22:21:26.636Z,4.70
2023-03-05T22:23:57.383Z,5.87
2023-03-05T22:26:26.775Z,5.47
2023-03-05T22:28:53.804Z,4.83
2023-03-05T22:31:27.300Z,4.30
2023-03-05T22:33:54.826Z,6.10
2023-03-05T22:36:21.853Z,5.77
2023-03-05T22:38:49.140Z,5.07
2023-03-05T22:41:19.897Z,5.00
2023-03-05T22:43:49.427Z,5.60
2023-03-05T22:46:23.945Z,6.00
2023-03-05T22:48:52.532Z,5.30
2023-03-05T22:51:20.309Z,6.30
2023-03-05T22:53:47.590Z,6.07
2023-03-05T22:56:18.958Z,5.13
2023-03-05T22:58:46.474Z,5.97
2023-03-05T23:01:31.694Z,5.00
2023-03-05T23:04:08.305Z,5.43
2023-03-05T23:06:35.362Z,8.20
2023-03-05T23:09:02.516Z,7.43
2023-03-05T23:11:29.715Z,5.13
2023-03-05T23:13:56.761Z,5.57
2023-03-05T23:16:23.745Z,5.63
2023-03-05T23:18:50.714Z,6.93
2023-03-05T23:21:19.030Z,7.70
2023-03-05T23:23:46.265Z,6.83
2023-03-05T23:26:13.724Z,5.77
2023-03-05T23:28:40.662Z,5.97
2023-03-05T23:31:08.045Z,6.03
2023-03-05T23:33:35.021Z,6.37
2023-03-05T23:36:02.053Z,5.67
2023-03-05T23:38:33.648Z,5.43
2023-03-05T23:41:03.007Z,7.47
2023-03-05T23:43:33.435Z,5.63
2023-03-05T23:46:02.073Z,5.60
2023-03-05T23:48:33.529Z,6.77
2023-03-05T23:51:00.927Z,5.87
2023-03-05T23:53:32.972Z,5.30
2023-03-05T23:56:00.947Z,5.83
2023-03-05T23:58:28.319Z,5.47
